Bemidji Regional Airport
KBJI : now visible

Airfield :











YOU CAN JOIN US ON...

 
LOGIN :

Register | Disclaimer

   EN    FR    IT 

 









Legend :    VFR   Marginal VFR   IFR   Intensive IFR   Very Intensive IFR
Visi :
Ceiling :
>= 8 km
>= 3000ft
5 to 8 km
1000 to 3000 ft
1500m to 5 km
500 to 1000 ft
800 to 1500m
200 to 500 ft
< 800m
< 200 ft
Symbols :   Thunderstorms  Fog  Heavy snow  Heavy precipitations  Wind > 20 kt






- Airport Elevation : 1391 ft


KBJI - Bemidji Regional

CURRENT METAR :
  • 212035Z AUTO 25007KT 10SM OVC031 03/M04 A3003 RMK AO2 T00301041

EXPIRED METARs :
  • 212015Z AUTO 27006KT 10SM OVC033 03/M04 A3004 RMK AO2 T00301043
  • 211955Z AUTO 30008KT 10SM OVC033 03/M05 A3004 RMK AO2 T00311046
  • 211935Z AUTO 25007KT 10SM OVC033 03/M05 A3005 RMK AO2 T00291047
  • 211915Z AUTO 25009KT 10SM SCT033 BKN039 BKN046 03/M05 A3005 RMK AO2 T00311053
  • 211855Z AUTO 27006KT 10SM BKN036 BKN041 03/M06 A3005 RMK AO2 T00281059
  • 211835Z AUTO 26005KT 10SM BKN038 OVC044 02/M06 A3006 RMK AO2 T00231061
  • 211815Z AUTO 28010KT 10SM OVC036 03/M06 A3006 RMK AO2 T00251063
  • 211755Z AUTO 24008KT 10SM OVC036 02/M07 A3007 RMK AO2 T00201070 10022 21054

TAF KBJI
Valid from the 21 at 18:00 until the 22 at 18:00 UTC


211727Z 2118/2218 28010KT P6SM BKN035
FM220100 VRB04KT P6SM SCT040
FM221500 25009KT P6SM SKC
KZMP FIR / North America



MET'MAP, your aeronautical weather chart ! - Copyright ORBIFLY December 2007 - Disclaimer

ORBIFLY MET'MAP TEAM :

Programming & Development : Alexandra Zaïnal
Concept & original design : Baudouin d'Aumeries
Assistance for programming : Marc-Olivier Méhu
Technical & hardware support : Manuel Goepfert

Contact : metmap@orbifly.com




SOURCES & CREDITS :

   NOAA       Earth
Advisory